sensor_id;sensor_type;location;lat;lon;timestamp;P1;durP1;ratioP1;P2;durP2;ratioP2
70715;SDS011;59053;50.832;12.882;2022-07-23T00:01:31;12.73;;;5.87;;
70715;SDS011;59053;50.832;12.882;2022-07-23T00:03:57;7.90;;;5.63;;
70715;SDS011;59053;50.832;12.882;2022-07-23T00:06:23;8.13;;;5.78;;
70715;SDS011;59053;50.832;12.882;2022-07-23T00:08:48;10.37;;;5.60;;
70715;SDS011;59053;50.832;12.882;2022-07-23T00:11:14;9.67;;;5.70;;
70715;SDS011;59053;50.832;12.882;2022-07-23T00:13:39;8.03;;;5.70;;
70715;SDS011;59053;50.832;12.882;2022-07-23T00:16:04;12.20;;;6.07;;
70715;SDS011;59053;50.832;12.882;2022-07-23T00:18:30;10.10;;;5.73;;
70715;SDS011;59053;50.832;12.882;2022-07-23T00:20:55;10.70;;;5.47;;
70715;SDS011;59053;50.832;12.882;2022-07-23T00:23:21;9.23;;;5.60;;
70715;SDS011;59053;50.832;12.882;2022-07-23T00:25:46;9.10;;;5.70;;
70715;SDS011;59053;50.832;12.882;2022-07-23T00:28:11;12.67;;;5.67;;
70715;SDS011;59053;50.832;12.882;2022-07-23T00:30:37;8.10;;;5.30;;
70715;SDS011;59053;50.832;12.882;2022-07-23T00:33:03;7.90;;;5.30;;
70715;SDS011;59053;50.832;12.882;2022-07-23T00:35:34;8.10;;;5.17;;
70715;SDS011;59053;50.832;12.882;2022-07-23T00:38:00;8.77;;;5.30;;
70715;SDS011;59053;50.832;12.882;2022-07-23T00:40:27;10.23;;;4.85;;
70715;SDS011;59053;50.832;12.882;2022-07-23T00:42:53;8.38;;;4.60;;
70715;SDS011;59053;50.832;12.882;2022-07-23T00:45:18;8.50;;;4.80;;
70715;SDS011;59053;50.832;12.882;2022-07-23T00:47:44;7.13;;;4.50;;
70715;SDS011;59053;50.832;12.882;2022-07-23T00:50:10;8.63;;;4.50;;
70715;SDS011;59053;50.832;12.882;2022-07-23T00:52:36;8.35;;;4.65;;
70715;SDS011;59053;50.832;12.882;2022-07-23T00:55:03;7.90;;;4.47;;
70715;SDS011;59053;50.832;12.882;2022-07-23T00:57:29;8.30;;;4.70;;
70715;SDS011;59053;50.832;12.882;2022-07-23T00:59:55;7.43;;;4.20;;
70715;SDS011;59053;50.832;12.882;2022-07-23T01:02:21;14.38;;;4.60;;
70715;SDS011;59053;50.832;12.882;2022-07-23T01:04:46;8.00;;;4.10;;
70715;SDS011;59053;50.832;12.882;2022-07-23T01:07:12;7.40;;;4.40;;
70715;SDS011;59053;50.832;12.882;2022-07-23T01:09:37;7.27;;;4.50;;
70715;SDS011;59053;50.832;12.882;2022-07-23T01:12:03;8.88;;;4.50;;
70715;SDS011;59053;50.832;12.882;2022-07-23T01:14:28;8.40;;;4.30;;
70715;SDS011;59053;50.832;12.882;2022-07-23T01:16:54;6.17;;;4.40;;
70715;SDS011;59053;50.832;12.882;2022-07-23T01:19:19;10.27;;;4.70;;
70715;SDS011;59053;50.832;12.882;2022-07-23T01:21:46;13.38;;;4.63;;
70715;SDS011;59053;50.832;12.882;2022-07-23T01:24:12;6.97;;;4.20;;
70715;SDS011;59053;50.832;12.882;2022-07-23T01:26:45;8.18;;;4.63;;
70715;SDS011;59053;50.832;12.882;2022-07-23T01:29:11;7.22;;;4.43;;
70715;SDS011;59053;50.832;12.882;2022-07-23T01:31:38;8.32;;;4.30;;
70715;SDS011;59053;50.832;12.882;2022-07-23T01:34:04;8.47;;;4.70;;
70715;SDS011;59053;50.832;12.882;2022-07-23T01:36:29;7.10;;;4.60;;
70715;SDS011;59053;50.832;12.882;2022-07-23T01:38:55;7.10;;;4.23;;
70715;SDS011;59053;50.832;12.882;2022-07-23T01:41:21;8.90;;;5.13;;
70715;SDS011;59053;50.832;12.882;2022-07-23T01:43:46;6.90;;;4.40;;
70715;SDS011;59053;50.832;12.882;2022-07-23T01:46:12;7.27;;;4.30;;
70715;SDS011;59053;50.832;12.882;2022-07-23T01:48:42;11.50;;;4.85;;
70715;SDS011;59053;50.832;12.882;2022-07-23T01:51:36;8.40;;;4.40;;
70715;SDS011;59053;50.832;12.882;2022-07-23T01:54:06;7.97;;;4.30;;
70715;SDS011;59053;50.832;12.882;2022-07-23T01:56:32;8.83;;;4.43;;
70715;SDS011;59053;50.832;12.882;2022-07-23T01:58:57;11.00;;;4.97;;
70715;SDS011;59053;50.832;12.882;2022-07-23T02:01:22;9.17;;;4.77;;
70715;SDS011;59053;50.832;12.882;2022-07-23T02:03:48;8.45;;;4.70;;
70715;SDS011;59053;50.832;12.882;2022-07-23T02:06:14;8.67;;;4.87;;
70715;SDS011;59053;50.832;12.882;2022-07-23T02:08:39;7.53;;;4.57;;
70715;SDS011;59053;50.832;12.882;2022-07-23T02:11:04;9.90;;;4.73;;
70715;SDS011;59053;50.832;12.882;2022-07-23T02:13:32;7.67;;;4.77;;
70715;SDS011;59053;50.832;12.882;2022-07-23T02:15:57;11.43;;;4.70;;
70715;SDS011;59053;50.832;12.882;2022-07-23T02:18:22;7.80;;;4.80;;
70715;SDS011;59053;50.832;12.882;2022-07-23T02:20:50;7.97;;;4.70;;
70715;SDS011;59053;50.832;12.882;2022-07-23T02:23:15;7.13;;;4.80;;
70715;SDS011;59053;50.832;12.882;2022-07-23T02:25:41;7.50;;;4.77;;
70715;SDS011;59053;50.832;12.882;2022-07-23T02:28:06;7.67;;;4.90;;
70715;SDS011;59053;50.832;12.882;2022-07-23T02:30:32;8.03;;;4.70;;
70715;SDS011;59053;50.832;12.882;2022-07-23T02:32:57;8.55;;;4.78;;
70715;SDS011;59053;50.832;12.882;2022-07-23T02:35:23;9.70;;;4.93;;
70715;SDS011;59053;50.832;12.882;2022-07-23T02:37:49;8.07;;;5.03;;
70715;SDS011;59053;50.832;12.882;2022-07-23T02:40:14;8.43;;;4.77;;
70715;SDS011;59053;50.832;12.882;2022-07-23T02:42:41;7.97;;;4.90;;
70715;SDS011;59053;50.832;12.882;2022-07-23T02:45:08;9.07;;;4.60;;
70715;SDS011;59053;50.832;12.882;2022-07-23T02:47:33;7.37;;;4.83;;
70715;SDS011;59053;50.832;12.882;2022-07-23T02:50:00;9.80;;;5.00;;
70715;SDS011;59053;50.832;12.882;2022-07-23T02:52:26;8.77;;;5.05;;
70715;SDS011;59053;50.832;12.882;2022-07-23T02:54:52;8.17;;;4.67;;
70715;SDS011;59053;50.832;12.882;2022-07-23T02:57:18;8.40;;;5.05;;
70715;SDS011;59053;50.832;12.882;2022-07-23T02:59:43;7.90;;;4.87;;
70715;SDS011;59053;50.832;12.882;2022-07-23T03:02:09;8.20;;;5.07;;
70715;SDS011;59053;50.832;12.882;2022-07-23T03:04:34;7.73;;;5.10;;
70715;SDS011;59053;50.832;12.882;2022-07-23T03:06:59;9.30;;;5.15;;
70715;SDS011;59053;50.832;12.882;2022-07-23T03:09:25;8.93;;;5.20;;
70715;SDS011;59053;50.832;12.882;2022-07-23T03:11:51;7.82;;;4.90;;
70715;SDS011;59053;50.832;12.882;2022-07-23T03:14:18;8.73;;;5.00;;
70715;SDS011;59053;50.832;12.882;2022-07-23T03:16:43;8.00;;;5.27;;
70715;SDS011;59053;50.832;12.882;2022-07-23T03:19:09;8.53;;;5.50;;
70715;SDS011;59053;50.832;12.882;2022-07-23T03:21:34;10.70;;;6.03;;
70715;SDS011;59053;50.832;12.882;2022-07-23T03:24:01;9.88;;;5.47;;
70715;SDS011;59053;50.832;12.882;2022-07-23T03:26:28;10.00;;;5.35;;
70715;SDS011;59053;50.832;12.882;2022-07-23T03:28:53;8.00;;;5.37;;
70715;SDS011;59053;50.832;12.882;2022-07-23T03:31:18;10.87;;;5.57;;
70715;SDS011;59053;50.832;12.882;2022-07-23T03:33:44;8.30;;;5.13;;
70715;SDS011;59053;50.832;12.882;2022-07-23T03:36:09;11.60;;;5.13;;
70715;SDS011;59053;50.832;12.882;2022-07-23T03:38:38;8.13;;;5.10;;
70715;SDS011;59053;50.832;12.882;2022-07-23T03:41:03;8.80;;;5.23;;
70715;SDS011;59053;50.832;12.882;2022-07-23T03:43:29;8.77;;;5.07;;
70715;SDS011;59053;50.832;12.882;2022-07-23T03:45:54;8.80;;;5.50;;
70715;SDS011;59053;50.832;12.882;2022-07-23T03:48:20;7.13;;;4.30;;
70715;SDS011;59053;50.832;12.882;2022-07-23T03:50:45;9.77;;;5.93;;
70715;SDS011;59053;50.832;12.882;2022-07-23T03:53:10;9.45;;;5.65;;
70715;SDS011;59053;50.832;12.882;2022-07-23T03:55:36;9.47;;;5.57;;
70715;SDS011;59053;50.832;12.882;2022-07-23T03:58:01;7.80;;;4.33;;
70715;SDS011;59053;50.832;12.882;2022-07-23T04:00:27;8.53;;;5.20;;
70715;SDS011;59053;50.832;12.882;2022-07-23T04:02:52;9.00;;;5.68;;
70715;SDS011;59053;50.832;12.882;2022-07-23T04:05:18;8.93;;;5.27;;
70715;SDS011;59053;50.832;12.882;2022-07-23T04:07:46;9.57;;;5.65;;
70715;SDS011;59053;50.832;12.882;2022-07-23T04:10:11;10.40;;;5.27;;
70715;SDS011;59053;50.832;12.882;2022-07-23T04:12:37;9.47;;;5.77;;
70715;SDS011;59053;50.832;12.882;2022-07-23T04:15:03;9.50;;;5.60;;
70715;SDS011;59053;50.832;12.882;2022-07-23T04:17:30;9.30;;;6.13;;
70715;SDS011;59053;50.832;12.882;2022-07-23T04:19:56;8.67;;;5.70;;
70715;SDS011;59053;50.832;12.882;2022-07-23T04:22:23;9.18;;;5.63;;
70715;SDS011;59053;50.832;12.882;2022-07-23T04:24:49;12.77;;;6.10;;
70715;SDS011;59053;50.832;12.882;2022-07-23T04:27:15;10.77;;;5.80;;
70715;SDS011;59053;50.832;12.882;2022-07-23T04:29:41;10.70;;;5.40;;
70715;SDS011;59053;50.832;12.882;2022-07-23T04:32:06;9.53;;;5.80;;
70715;SDS011;59053;50.832;12.882;2022-07-23T04:34:32;10.17;;;5.73;;
70715;SDS011;59053;50.832;12.882;2022-07-23T04:36:58;11.98;;;5.70;;
70715;SDS011;59053;50.832;12.882;2022-07-23T04:39:24;10.20;;;5.95;;
70715;SDS011;59053;50.832;12.882;2022-07-23T04:41:50;12.93;;;6.10;;
70715;SDS011;59053;50.832;12.882;2022-07-23T04:44:15;8.93;;;5.63;;
70715;SDS011;59053;50.832;12.882;2022-07-23T04:46:41;9.97;;;6.03;;
70715;SDS011;59053;50.832;12.882;2022-07-23T04:49:07;10.10;;;5.60;;
70715;SDS011;59053;50.832;12.882;2022-07-23T04:51:32;10.67;;;5.80;;
70715;SDS011;59053;50.832;12.882;2022-07-23T04:53:59;9.98;;;6.20;;
70715;SDS011;59053;50.832;12.882;2022-07-23T04:56:24;9.33;;;5.80;;
70715;SDS011;59053;50.832;12.882;2022-07-23T04:58:49;11.13;;;6.22;;
70715;SDS011;59053;50.832;12.882;2022-07-23T05:01:15;10.53;;;6.07;;
70715;SDS011;59053;50.832;12.882;2022-07-23T05:03:41;9.73;;;6.35;;
70715;SDS011;59053;50.832;12.882;2022-07-23T05:06:06;11.90;;;6.50;;
70715;SDS011;59053;50.832;12.882;2022-07-23T05:08:32;10.97;;;6.37;;
70715;SDS011;59053;50.832;12.882;2022-07-23T05:10:58;10.43;;;6.40;;
70715;SDS011;59053;50.832;12.882;2022-07-23T05:13:23;11.00;;;6.30;;
70715;SDS011;59053;50.832;12.882;2022-07-23T05:15:51;11.90;;;7.40;;
70715;SDS011;59053;50.832;12.882;2022-07-23T05:18:16;11.30;;;7.50;;
70715;SDS011;59053;50.832;12.882;2022-07-23T05:20:46;12.10;;;7.22;;
70715;SDS011;59053;50.832;12.882;2022-07-23T05:23:17;11.50;;;6.72;;
70715;SDS011;59053;50.832;12.882;2022-07-23T05:25:43;12.23;;;6.50;;
70715;SDS011;59053;50.832;12.882;2022-07-23T05:28:09;11.68;;;6.57;;
70715;SDS011;59053;50.832;12.882;2022-07-23T05:30:34;11.13;;;7.00;;
70715;SDS011;59053;50.832;12.882;2022-07-23T05:33:03;12.90;;;7.10;;
70715;SDS011;59053;50.832;12.882;2022-07-23T05:35:29;13.10;;;7.37;;
70715;SDS011;59053;50.832;12.882;2022-07-23T05:38:08;13.68;;;6.97;;
70715;SDS011;59053;50.832;12.882;2022-07-23T05:40:34;13.30;;;7.78;;
70715;SDS011;59053;50.832;12.882;2022-07-23T05:42:59;11.27;;;6.77;;
70715;SDS011;59053;50.832;12.882;2022-07-23T05:45:24;14.93;;;7.40;;
70715;SDS011;59053;50.832;12.882;2022-07-23T05:47:50;12.38;;;7.07;;
70715;SDS011;59053;50.832;12.882;2022-07-23T05:50:24;13.85;;;7.10;;
70715;SDS011;59053;50.832;12.882;2022-07-23T05:52:56;13.67;;;6.73;;
70715;SDS011;59053;50.832;12.882;2022-07-23T05:55:45;11.00;;;6.65;;
70715;SDS011;59053;50.832;12.882;2022-07-23T05:58:10;11.90;;;6.87;;
70715;SDS011;59053;50.832;12.882;2022-07-23T06:00:35;12.27;;;5.53;;
70715;SDS011;59053;50.832;12.882;2022-07-23T06:03:01;12.03;;;6.80;;
70715;SDS011;59053;50.832;12.882;2022-07-23T06:05:28;11.93;;;6.50;;
70715;SDS011;59053;50.832;12.882;2022-07-23T06:07:55;10.27;;;6.13;;
70715;SDS011;59053;50.832;12.882;2022-07-23T06:10:22;13.43;;;6.50;;
70715;SDS011;59053;50.832;12.882;2022-07-23T06:12:48;11.30;;;6.43;;
70715;SDS011;59053;50.832;12.882;2022-07-23T06:15:13;10.63;;;6.73;;
70715;SDS011;59053;50.832;12.882;2022-07-23T06:17:39;13.40;;;7.13;;
70715;SDS011;59053;50.832;12.882;2022-07-23T06:20:08;11.13;;;6.37;;
70715;SDS011;59053;50.832;12.882;2022-07-23T06:22:36;11.65;;;6.22;;
70715;SDS011;59053;50.832;12.882;2022-07-23T06:25:02;11.07;;;6.50;;
70715;SDS011;59053;50.832;12.882;2022-07-23T06:27:28;10.30;;;6.45;;
70715;SDS011;59053;50.832;12.882;2022-07-23T06:29:53;12.80;;;6.90;;
70715;SDS011;59053;50.832;12.882;2022-07-23T06:32:19;12.47;;;6.93;;
70715;SDS011;59053;50.832;12.882;2022-07-23T06:34:44;11.05;;;6.75;;
70715;SDS011;59053;50.832;12.882;2022-07-23T06:37:09;11.07;;;5.93;;
70715;SDS011;59053;50.832;12.882;2022-07-23T06:39:35;13.13;;;6.93;;
70715;SDS011;59053;50.832;12.882;2022-07-23T06:42:00;12.30;;;6.43;;
70715;SDS011;59053;50.832;12.882;2022-07-23T06:44:36;12.82;;;6.90;;
70715;SDS011;59053;50.832;12.882;2022-07-23T06:47:06;10.45;;;5.28;;
70715;SDS011;59053;50.832;12.882;2022-07-23T06:49:32;13.93;;;6.53;;
70715;SDS011;59053;50.832;12.882;2022-07-23T06:51:57;10.40;;;6.15;;
70715;SDS011;59053;50.832;12.882;2022-07-23T06:54:22;12.40;;;6.53;;
70715;SDS011;59053;50.832;12.882;2022-07-23T06:56:48;14.47;;;6.60;;
70715;SDS011;59053;50.832;12.882;2022-07-23T06:59:14;10.10;;;6.00;;
70715;SDS011;59053;50.832;12.882;2022-07-23T07:01:39;12.53;;;6.30;;
70715;SDS011;59053;50.832;12.882;2022-07-23T07:04:05;11.83;;;6.20;;
70715;SDS011;59053;50.832;12.882;2022-07-23T07:06:30;8.67;;;5.50;;
70715;SDS011;59053;50.832;12.882;2022-07-23T07:08:55;9.30;;;5.45;;
70715;SDS011;59053;50.832;12.882;2022-07-23T07:11:21;8.03;;;4.37;;
70715;SDS011;59053;50.832;12.882;2022-07-23T07:13:48;9.35;;;5.88;;
70715;SDS011;59053;50.832;12.882;2022-07-23T07:16:14;11.70;;;6.37;;
70715;SDS011;59053;50.832;12.882;2022-07-23T07:18:39;14.60;;;6.27;;
70715;SDS011;59053;50.832;12.882;2022-07-23T07:21:04;11.27;;;6.43;;
70715;SDS011;59053;50.832;12.882;2022-07-23T07:23:30;11.43;;;6.57;;
70715;SDS011;59053;50.832;12.882;2022-07-23T07:25:55;10.03;;;6.00;;
70715;SDS011;59053;50.832;12.882;2022-07-23T07:28:21;13.35;;;6.60;;
70715;SDS011;59053;50.832;12.882;2022-07-23T07:30:46;12.80;;;6.13;;
70715;SDS011;59053;50.832;12.882;2022-07-23T07:33:11;10.50;;;6.30;;
70715;SDS011;59053;50.832;12.882;2022-07-23T07:35:37;9.83;;;5.83;;
70715;SDS011;59053;50.832;12.882;2022-07-23T07:38:02;10.13;;;6.00;;
70715;SDS011;59053;50.832;12.882;2022-07-23T07:40:27;12.27;;;6.55;;
70715;SDS011;59053;50.832;12.882;2022-07-23T07:42:53;10.00;;;6.10;;
70715;SDS011;59053;50.832;12.882;2022-07-23T07:45:19;9.82;;;6.20;;
70715;SDS011;59053;50.832;12.882;2022-07-23T07:47:45;11.00;;;6.50;;
70715;SDS011;59053;50.832;12.882;2022-07-23T07:50:11;10.10;;;6.15;;
70715;SDS011;59053;50.832;12.882;2022-07-23T07:52:36;9.20;;;5.80;;
70715;SDS011;59053;50.832;12.882;2022-07-23T07:55:02;11.17;;;6.43;;
70715;SDS011;59053;50.832;12.882;2022-07-23T07:57:31;10.45;;;6.10;;
70715;SDS011;59053;50.832;12.882;2022-07-23T07:59:56;10.80;;;6.17;;
70715;SDS011;59053;50.832;12.882;2022-07-23T08:02:22;9.80;;;6.17;;
70715;SDS011;59053;50.832;12.882;2022-07-23T08:04:47;10.37;;;6.30;;
70715;SDS011;59053;50.832;12.882;2022-07-23T08:07:13;12.07;;;6.60;;
70715;SDS011;59053;50.832;12.882;2022-07-23T08:09:39;12.70;;;6.05;;
70715;SDS011;59053;50.832;12.882;2022-07-23T08:12:04;10.20;;;6.57;;
70715;SDS011;59053;50.832;12.882;2022-07-23T08:14:30;10.87;;;6.50;;
70715;SDS011;59053;50.832;12.882;2022-07-23T08:16:55;10.73;;;6.53;;
70715;SDS011;59053;50.832;12.882;2022-07-23T08:19:21;11.60;;;6.43;;
70715;SDS011;59053;50.832;12.882;2022-07-23T08:21:46;9.77;;;6.37;;
70715;SDS011;59053;50.832;12.882;2022-07-23T08:24:11;10.40;;;6.23;;
70715;SDS011;59053;50.832;12.882;2022-07-23T08:26:37;11.75;;;6.57;;
70715;SDS011;59053;50.832;12.882;2022-07-23T08:29:02;12.43;;;6.13;;
70715;SDS011;59053;50.832;12.882;2022-07-23T08:31:27;10.03;;;6.27;;
70715;SDS011;59053;50.832;12.882;2022-07-23T08:33:53;12.27;;;6.33;;
70715;SDS011;59053;50.832;12.882;2022-07-23T08:36:19;10.47;;;6.07;;
70715;SDS011;59053;50.832;12.882;2022-07-23T08:38:44;12.07;;;6.83;;
70715;SDS011;59053;50.832;12.882;2022-07-23T08:41:09;9.00;;;5.77;;
70715;SDS011;59053;50.832;12.882;2022-07-23T08:43:35;10.50;;;6.40;;
70715;SDS011;59053;50.832;12.882;2022-07-23T08:46:01;12.23;;;6.50;;
70715;SDS011;59053;50.832;12.882;2022-07-23T08:48:29;11.18;;;6.50;;
70715;SDS011;59053;50.832;12.882;2022-07-23T08:50:57;10.03;;;6.67;;
70715;SDS011;59053;50.832;12.882;2022-07-23T08:53:24;14.85;;;7.00;;
70715;SDS011;59053;50.832;12.882;2022-07-23T08:55:51;12.60;;;6.75;;
70715;SDS011;59053;50.832;12.882;2022-07-23T08:58:18;10.95;;;6.68;;
70715;SDS011;59053;50.832;12.882;2022-07-23T09:00:44;12.02;;;6.90;;
70715;SDS011;59053;50.832;12.882;2022-07-23T09:03:14;10.57;;;6.90;;
70715;SDS011;59053;50.832;12.882;2022-07-23T09:06:10;10.00;;;6.78;;
70715;SDS011;59053;50.832;12.882;2022-07-23T09:08:42;11.47;;;6.47;;
70715;SDS011;59053;50.832;12.882;2022-07-23T09:11:12;10.38;;;6.68;;
70715;SDS011;59053;50.832;12.882;2022-07-23T09:16:13;11.32;;;6.57;;
70715;SDS011;59053;50.832;12.882;2022-07-23T09:18:44;10.70;;;6.70;;
70715;SDS011;59053;50.832;12.882;2022-07-23T09:21:26;11.27;;;6.83;;
70715;SDS011;59053;50.832;12.882;2022-07-23T09:24:00;10.98;;;6.63;;
70715;SDS011;59053;50.832;12.882;2022-07-23T09:26:43;14.15;;;7.03;;
70715;SDS011;59053;50.832;12.882;2022-07-23T09:29:17;11.05;;;6.68;;
70715;SDS011;59053;50.832;12.882;2022-07-23T09:32:00;11.02;;;6.47;;
70715;SDS011;59053;50.832;12.882;2022-07-23T09:34:31;9.67;;;6.23;;
70715;SDS011;59053;50.832;12.882;2022-07-23T09:37:09;9.57;;;6.28;;
70715;SDS011;59053;50.832;12.882;2022-07-23T09:39:40;11.18;;;6.72;;
70715;SDS011;59053;50.832;12.882;2022-07-23T09:42:16;10.23;;;6.88;;
70715;SDS011;59053;50.832;12.882;2022-07-23T09:44:49;12.23;;;6.30;;
70715;SDS011;59053;50.832;12.882;2022-07-23T09:47:16;11.23;;;6.50;;
70715;SDS011;59053;50.832;12.882;2022-07-23T09:52:34;10.30;;;6.30;;
70715;SDS011;59053;50.832;12.882;2022-07-23T09:55:07;9.85;;;6.63;;
70715;SDS011;59053;50.832;12.882;2022-07-23T09:57:33;9.63;;;6.40;;
70715;SDS011;59053;50.832;12.882;2022-07-23T10:00:04;9.80;;;6.00;;
70715;SDS011;59053;50.832;12.882;2022-07-23T10:02:34;10.90;;;6.55;;
70715;SDS011;59053;50.832;12.882;2022-07-23T10:05:18;10.20;;;6.37;;
70715;SDS011;59053;50.832;12.882;2022-07-23T10:08:07;8.55;;;5.53;;
70715;SDS011;59053;50.832;12.882;2022-07-23T10:10:54;10.02;;;6.10;;
70715;SDS011;59053;50.832;12.882;2022-07-23T10:13:29;10.45;;;5.80;;
70715;SDS011;59053;50.832;12.882;2022-07-23T10:16:11;9.93;;;6.50;;
70715;SDS011;59053;50.832;12.882;2022-07-23T10:18:36;12.33;;;5.93;;
70715;SDS011;59053;50.832;12.882;2022-07-23T10:21:03;11.30;;;6.40;;
70715;SDS011;59053;50.832;12.882;2022-07-23T10:23:34;10.18;;;6.28;;
70715;SDS011;59053;50.832;12.882;2022-07-23T10:31:47;10.70;;;6.35;;
70715;SDS011;59053;50.832;12.882;2022-07-23T10:34:21;8.67;;;5.70;;
70715;SDS011;59053;50.832;12.882;2022-07-23T10:36:56;11.88;;;6.03;;
70715;SDS011;59053;50.832;12.882;2022-07-23T10:39:26;9.93;;;6.28;;
70715;SDS011;59053;50.832;12.882;2022-07-23T10:42:07;14.93;;;6.68;;
70715;SDS011;59053;50.832;12.882;2022-07-23T10:44:43;10.75;;;6.32;;
70715;SDS011;59053;50.832;12.882;2022-07-23T10:47:11;13.70;;;6.27;;
70715;SDS011;59053;50.832;12.882;2022-07-23T10:57:59;10.77;;;6.40;;
70715;SDS011;59053;50.832;12.882;2022-07-23T11:00:26;11.45;;;6.93;;
70715;SDS011;59053;50.832;12.882;2022-07-23T11:02:56;12.97;;;7.20;;
70715;SDS011;59053;50.832;12.882;2022-07-23T11:05:42;11.45;;;7.30;;
70715;SDS011;59053;50.832;12.882;2022-07-23T11:08:10;11.13;;;7.28;;
70715;SDS011;59053;50.832;12.882;2022-07-23T11:10:52;12.10;;;7.38;;
70715;SDS011;59053;50.832;12.882;2022-07-23T11:13:30;12.68;;;7.28;;
70715;SDS011;59053;50.832;12.882;2022-07-23T11:34:42;12.25;;;6.85;;
70715;SDS011;59053;50.832;12.882;2022-07-23T11:37:12;12.93;;;7.25;;
70715;SDS011;59053;50.832;12.882;2022-07-23T11:39:53;10.57;;;7.00;;
70715;SDS011;59053;50.832;12.882;2022-07-23T11:42:19;11.63;;;6.13;;
70715;SDS011;59053;50.832;12.882;2022-07-23T11:44:46;10.65;;;6.57;;
70715;SDS011;59053;50.832;12.882;2022-07-23T11:47:11;9.53;;;5.53;;
70715;SDS011;59053;50.832;12.882;2022-07-23T11:49:37;10.05;;;6.38;;
70715;SDS011;59053;50.832;12.882;2022-07-23T11:57:18;11.93;;;7.20;;
70715;SDS011;59053;50.832;12.882;2022-07-23T11:59:45;11.57;;;7.70;;
70715;SDS011;59053;50.832;12.882;2022-07-23T12:02:11;10.32;;;7.18;;
70715;SDS011;59053;50.832;12.882;2022-07-23T12:04:40;11.90;;;7.60;;
70715;SDS011;59053;50.832;12.882;2022-07-23T12:07:23;12.15;;;8.60;;
70715;SDS011;59053;50.832;12.882;2022-07-23T12:09:49;12.52;;;8.52;;
70715;SDS011;59053;50.832;12.882;2022-07-23T12:12:15;11.57;;;8.37;;
70715;SDS011;59053;50.832;12.882;2022-07-23T12:14:47;13.60;;;8.50;;
70715;SDS011;59053;50.832;12.882;2022-07-23T12:17:16;14.05;;;9.65;;
70715;SDS011;59053;50.832;12.882;2022-07-23T12:19:42;13.93;;;8.67;;
70715;SDS011;59053;50.832;12.882;2022-07-23T12:22:07;12.37;;;8.73;;
70715;SDS011;59053;50.832;12.882;2022-07-23T12:24:52;12.98;;;8.88;;
70715;SDS011;59053;50.832;12.882;2022-07-23T12:27:20;14.07;;;9.88;;
70715;SDS011;59053;50.832;12.882;2022-07-23T12:29:46;12.27;;;8.70;;
70715;SDS011;59053;50.832;12.882;2022-07-23T12:34:48;16.03;;;10.33;;
70715;SDS011;59053;50.832;12.882;2022-07-23T12:37:32;13.70;;;10.38;;
70715;SDS011;59053;50.832;12.882;2022-07-23T12:39:58;12.18;;;7.13;;
70715;SDS011;59053;50.832;12.882;2022-07-23T12:43:01;16.80;;;9.88;;
70715;SDS011;59053;50.832;12.882;2022-07-23T12:45:28;16.35;;;10.60;;
70715;SDS011;59053;50.832;12.882;2022-07-23T12:48:07;17.97;;;10.60;;
70715;SDS011;59053;50.832;12.882;2022-07-23T12:50:40;13.98;;;10.40;;
70715;SDS011;59053;50.832;12.882;2022-07-23T12:53:21;13.57;;;9.90;;
70715;SDS011;59053;50.832;12.882;2022-07-23T12:55:49;13.87;;;9.47;;
70715;SDS011;59053;50.832;12.882;2022-07-23T12:58:17;12.30;;;8.90;;
70715;SDS011;59053;50.832;12.882;2022-07-23T13:00:50;13.10;;;9.45;;
70715;SDS011;59053;50.832;12.882;2022-07-23T13:03:22;14.73;;;9.45;;
70715;SDS011;59053;50.832;12.882;2022-07-23T13:05:49;12.52;;;9.32;;
70715;SDS011;59053;50.832;12.882;2022-07-23T13:08:14;13.07;;;8.80;;
70715;SDS011;59053;50.832;12.882;2022-07-23T13:10:39;11.30;;;8.97;;
70715;SDS011;59053;50.832;12.882;2022-07-23T13:13:09;12.75;;;9.23;;
70715;SDS011;59053;50.832;12.882;2022-07-23T13:15:35;12.90;;;9.37;;
70715;SDS011;59053;50.832;12.882;2022-07-23T13:18:00;13.77;;;9.05;;
70715;SDS011;59053;50.832;12.882;2022-07-23T13:20:25;13.63;;;9.60;;
70715;SDS011;59053;50.832;12.882;2022-07-23T13:22:51;14.23;;;9.97;;
70715;SDS011;59053;50.832;12.882;2022-07-23T13:25:16;13.10;;;9.93;;
70715;SDS011;59053;50.832;12.882;2022-07-23T13:27:42;12.93;;;10.02;;
70715;SDS011;59053;50.832;12.882;2022-07-23T13:30:08;13.20;;;9.77;;
70715;SDS011;59053;50.832;12.882;2022-07-23T13:32:35;14.50;;;9.65;;
70715;SDS011;59053;50.832;12.882;2022-07-23T13:35:01;11.67;;;9.37;;
70715;SDS011;59053;50.832;12.882;2022-07-23T13:37:27;16.55;;;10.05;;
70715;SDS011;59053;50.832;12.882;2022-07-23T13:39:52;13.40;;;9.93;;
70715;SDS011;59053;50.832;12.882;2022-07-23T13:42:17;14.73;;;10.37;;
70715;SDS011;59053;50.832;12.882;2022-07-23T13:44:43;14.70;;;9.50;;
70715;SDS011;59053;50.832;12.882;2022-07-23T13:47:08;14.47;;;10.17;;
70715;SDS011;59053;50.832;12.882;2022-07-23T13:49:33;13.23;;;8.87;;
70715;SDS011;59053;50.832;12.882;2022-07-23T13:51:59;14.07;;;8.67;;
70715;SDS011;59053;50.832;12.882;2022-07-23T13:54:25;13.25;;;9.18;;
70715;SDS011;59053;50.832;12.882;2022-07-23T13:56:51;11.83;;;8.90;;
70715;SDS011;59053;50.832;12.882;2022-07-23T13:59:16;12.13;;;8.93;;
70715;SDS011;59053;50.832;12.882;2022-07-23T14:14:49;13.05;;;9.73;;
70715;SDS011;59053;50.832;12.882;2022-07-23T14:21:06;12.82;;;9.25;;
70715;SDS011;59053;50.832;12.882;2022-07-23T14:23:31;13.90;;;9.83;;
70715;SDS011;59053;50.832;12.882;2022-07-23T14:26:09;14.48;;;8.30;;
70715;SDS011;59053;50.832;12.882;2022-07-23T14:28:35;12.60;;;9.52;;
70715;SDS011;59053;50.832;12.882;2022-07-23T14:31:00;12.40;;;8.50;;
70715;SDS011;59053;50.832;12.882;2022-07-23T14:33:43;13.93;;;9.27;;
70715;SDS011;59053;50.832;12.882;2022-07-23T14:36:34;11.90;;;7.88;;
70715;SDS011;59053;50.832;12.882;2022-07-23T14:39:10;16.23;;;9.73;;
70715;SDS011;59053;50.832;12.882;2022-07-23T14:45:49;13.40;;;9.53;;
70715;SDS011;59053;50.832;12.882;2022-07-23T14:48:15;14.07;;;10.15;;
70715;SDS011;59053;50.832;12.882;2022-07-23T14:50:40;12.87;;;10.07;;
70715;SDS011;59053;50.832;12.882;2022-07-23T14:56:29;13.07;;;9.77;;
70715;SDS011;59053;50.832;12.882;2022-07-23T14:59:08;13.50;;;10.25;;
70715;SDS011;59053;50.832;12.882;2022-07-23T15:15:25;12.65;;;10.25;;
70715;SDS011;59053;50.832;12.882;2022-07-23T15:18:18;11.90;;;8.97;;
70715;SDS011;59053;50.832;12.882;2022-07-23T15:20:52;14.52;;;9.98;;
70715;SDS011;59053;50.832;12.882;2022-07-23T15:23:34;11.73;;;9.68;;
70715;SDS011;59053;50.832;12.882;2022-07-23T15:26:09;13.00;;;10.05;;
70715;SDS011;59053;50.832;12.882;2022-07-23T15:28:46;14.95;;;10.27;;
70715;SDS011;59053;50.832;12.882;2022-07-23T15:31:31;15.17;;;11.20;;
70715;SDS011;59053;50.832;12.882;2022-07-23T15:33:56;13.07;;;9.33;;
70715;SDS011;59053;50.832;12.882;2022-07-23T15:47:18;14.10;;;11.03;;
70715;SDS011;59053;50.832;12.882;2022-07-23T15:50:30;12.60;;;10.38;;
70715;SDS011;59053;50.832;12.882;2022-07-23T16:05:42;12.32;;;9.52;;
70715;SDS011;59053;50.832;12.882;2022-07-23T16:08:33;11.75;;;9.48;;
70715;SDS011;59053;50.832;12.882;2022-07-23T16:11:02;12.50;;;9.60;;
70715;SDS011;59053;50.832;12.882;2022-07-23T16:13:35;11.20;;;8.87;;
70715;SDS011;59053;50.832;12.882;2022-07-23T16:24:51;10.75;;;8.38;;
70715;SDS011;59053;50.832;12.882;2022-07-23T16:27:32;11.37;;;8.73;;
70715;SDS011;59053;50.832;12.882;2022-07-23T16:29:59;10.40;;;8.30;;